Share

Chanthaburi, Thailand

U-Taphao International (VTBU) Elev 39 ft | 12.68 °N, 101.00 °E | Change Station

Current weather conditions updated 32 minutes ago

Mostly Cloudy
Mostly Cloudy
86 °F
Feels Like 97 °F
N
7
Wind Variable Wind from SW
Sunrise 5:57 AM
Sunset 6:24 PM
Moon Waning Gibbous

Tomorrow is forecast to be nearly the same temperature as today.

Pressure 29.77 in
Visibility 5.0 miles
Clouds Few 2000 ft
Mostly Cloudy 30000 ft
Heat Index 97 °F
Dew Point 77 °F
Humidity 74%
Rainfall 0.00 in
Snow Depth Not available.
UV 0 out of 16
Pollen Not available.
Air Quality Not available.
Flu Activity Not available.
METAR VTBU 191400Z 22006KT 8000 FEW020 BKN300 30/25 Q1008 A2979

More Conditions Fewer Conditions

Pressure 29.77 in
Visibility 5.0 miles
Clouds Few 2000 ft
Mostly Cloudy 30000 ft
Heat Index 97 °F
Dew Point 77 °F
Humidity 74%
Rainfall 0.00 in
Snow Depth Not available.
UV 0 out of 16
Pollen Not available.
Air Quality Not available.
Flu Activity Not available.
METAR VTBU 191400Z 22006KT 8000 FEW020 BKN300 30/25 Q1008 A2979

More Conditions Fewer Conditions

10-Day Weather Forecast

Almanac

Astronomy

Apr. 19, 2014 Rise Set
Actual Time 5:57 AM ICT 6:24 PM ICT
Civil Twilight 5:35 AM ICT 6:46 PM ICT
Nautical Twilight 5:10 AM ICT 7:11 PM ICT
Astronomical Twilight 4:44 AM ICT 7:36 PM ICT
Moon 10:13 PM ICT 9:07 AM ICT
Length of Visible Light 13h 10m
Length of Day
12h 27m
Tomorrow will be 0m 40s longer.
Waning Gibbous, 79% of the Moon is Illuminated
Today
Waning Gibbous
Apr 22
Last Quarter
Apr 29
New
May 6
First Quarter
May 14
Full

Today's Extremes

Country Highs Country Lows

Community

  • A Glorious Morning
    A Glorious Morning
  • Bleeding Hearts
    Bleeding Hearts
  • Sunset Silhouettes
    Sunset Silhouettes
  • FL sunset Perico Isle
    FL sunset Perico Isle
  • La Conner
    La Conner

WunderPhotos

Upload Photos

1,702,745 photos uploaded!

Nearby

Snow Depth

Not available.

Coastal Water Temperatures

Place Temperature
No Stations Reporting

Earthquake Activity

City Distance Mag. Time & Date
No recent earthquake activity has been reported nearby.
Minimum magnitude displayed is 2.5.

Nearby Weather Stations

There are no personal weather stations in this area.

What do you think?

We're not finished. Please let us know what you like, what you don't like, and what you are still missing.